Terminal Aerodrome Forecast
Issued by NWS

Current Version | Previous Version | Graphics & Text | Print | Product List | Glossary On
Versions: 1 2 3 4 5 6 7 8 9 10 11 12 13 14 15 16 17 18 19 20 21 22 23 24 25
957
FTUS41 KILN 050533
TAFLUK
TAF
KLUK 050533Z 0506/0606 27012G18KT P6SM OVC012
      TEMPO 0506/0507 OVC006
     FM051300 20004KT P6SM BKN012
     FM051700 VRB03KT P6SM SCT015 BKN250
     FM052100 11004KT P6SM BKN250
     FM060200 11008KT P6SM BKN080=

USA.gov is the U.S. government's official web portal to all federal, state and local government web resources and services.